Time;durP1;ratioP1;P1;durP2;ratioP2;P2;SDS_P1;SDS_P2;PMS_P1;PMS_P2;Temp;Humidity;BMP_temperature;BMP_pressure;BME280_temperature;BME280_humidity;BME280_pressure;Samples;Min_cycle;Max_cycle;Signal;HPM_P1;HPM_P2
2024/01/11 00:02:21;;;;;;;20.25;18.40;;;;;;;-4.90;67.89;95862.91;5057118;28;20205;-71
2024/01/11 00:04:49;;;;;;;19.80;17.90;;;;;;;-4.81;68.72;95851.78;5057746;28;20668;-72
2024/01/11 00:07:16;;;;;;;21.02;18.92;;;;;;;-4.77;68.62;95851.06;5057140;28;20262;-72
2024/01/11 00:09:44;;;;;;;21.65;19.58;;;;;;;-4.72;68.08;95847.66;5057853;28;20201;-72
2024/01/11 00:12:11;;;;;;;20.20;18.27;;;;;;;-4.71;68.30;95846.59;5057027;28;20588;-72
2024/01/11 00:14:40;;;;;;;20.15;18.15;;;;;;;-4.68;68.49;95843.44;5057640;28;20193;-72
2024/01/11 00:17:06;;;;;;;19.92;18.02;;;;;;;-4.73;68.37;95846.84;5057349;28;20193;-72
2024/01/11 00:19:33;;;;;;;21.02;19.02;;;;;;;-4.72;68.57;95842.25;5057746;28;20208;-72
2024/01/11 00:22:00;;;;;;;21.45;19.52;;;;;;;-4.77;68.11;95842.97;5057838;28;20201;-72
2024/01/11 00:24:27;;;;;;;21.98;19.80;;;;;;;-4.75;68.82;95840.88;5058024;28;20266;-72
2024/01/11 00:26:54;;;;;;;21.33;19.30;;;;;;;-4.76;68.62;95835.72;5057816;28;20197;-72
2024/01/11 00:29:21;;;;;;;21.23;19.15;;;;;;;-4.77;68.44;95834.91;5057245;28;20208;-72
2024/01/11 00:31:50;;;;;;;22.15;19.90;;;;;;;-4.82;68.58;95832.13;5056947;28;20294;-71
2024/01/11 00:34:17;;;;;;;22.38;20.27;;;;;;;-4.81;68.70;95836.44;5057357;28;20624;-71
2024/01/11 00:36:44;;;;;;;23.23;21.08;;;;;;;-4.92;68.64;95827.34;5057173;28;20201;-71
2024/01/11 00:39:11;;;;;;;23.25;21.00;;;;;;;-5.02;68.96;95824.41;5056975;28;20232;-71
2024/01/11 00:41:38;;;;;;;21.92;19.92;;;;;;;-5.16;68.88;95837.31;5057359;28;20197;-71
2024/01/11 00:44:05;;;;;;;21.80;19.73;;;;;;;-5.20;68.64;95829.94;5057186;28;20311;-71
2024/01/11 00:46:32;;;;;;;21.15;19.10;;;;;;;-5.16;69.40;95831.09;5056959;28;20228;-71
2024/01/11 00:49:02;;;;;;;21.98;19.73;;;;;;;-5.12;69.34;95826.88;5057855;28;20209;-71
2024/01/11 00:51:29;;;;;;;21.52;19.52;;;;;;;-5.07;68.71;95826.19;5056711;28;20197;-71
2024/01/11 00:53:56;;;;;;;20.67;18.75;;;;;;;-5.02;69.04;95816.34;5057285;28;20545;-71
2024/01/11 00:56:23;;;;;;;22.25;20.15;;;;;;;-5.02;68.99;95816.34;5056738;28;20211;-71
2024/01/11 00:58:50;;;;;;;23.00;20.80;;;;;;;-5.02;68.49;95815.53;5057155;28;20201;-71
2024/01/11 01:01:17;;;;;;;24.00;21.80;;;;;;;-5.05;69.49;95814.13;5059447;28;20197;-71
2024/01/11 01:03:44;;;;;;;23.33;21.17;;;;;;;-5.02;69.82;95813.66;5076943;28;20197;-71
2024/01/11 01:06:13;;;;;;;23.45;21.15;;;;;;;-4.97;69.44;95812.97;5059979;28;20213;-71
2024/01/11 01:08:40;;;;;;;22.50;20.40;;;;;;;-5.01;69.33;95806.41;5076916;28;20262;-71
2024/01/11 01:11:07;;;;;;;22.35;20.25;;;;;;;-5.11;69.24;95812.41;5077132;28;20193;-71
2024/01/11 01:13:34;;;;;;;20.63;18.73;;;;;;;-5.18;69.64;95815.22;5077200;28;20209;-71
2024/01/11 01:16:01;;;;;;;21.05;19.05;;;;;;;-5.27;69.25;95815.81;5060230;28;20200;-71
2024/01/11 01:18:28;;;;;;;20.83;18.67;;;;;;;-5.27;69.39;95813.13;5060708;28;20254;-71
2024/01/11 01:20:55;;;;;;;19.92;18.13;;;;;;;-5.18;70.16;95809.84;5060643;28;20197;-71
2024/01/11 01:23:24;;;;;;;19.80;18.00;;;;;;;-5.13;69.94;95811.81;5077760;28;20295;-71
2024/01/11 01:25:51;;;;;;;18.58;16.88;;;;;;;-5.13;69.54;95817.19;5076378;28;20221;-71
2024/01/11 01:28:18;;;;;;;18.88;17.17;;;;;;;-5.09;69.48;95810.28;5060720;28;20201;-71
2024/01/11 01:30:45;;;;;;;19.95;17.95;;;;;;;-5.03;69.54;95809.34;5060045;28;20259;-71
2024/01/11 01:33:12;;;;;;;19.88;18.02;;;;;;;-5.03;69.53;95805.84;5059731;28;20219;-71
2024/01/11 01:35:39;;;;;;;19.55;17.67;;;;;;;-5.03;69.80;95805.84;5059875;28;20613;-71
2024/01/11 01:38:06;;;;;;;19.35;17.55;;;;;;;-5.01;69.61;95804.56;5059774;28;20259;-71
2024/01/11 01:40:34;;;;;;;21.25;19.15;;;;;;;-5.00;69.70;95791.91;5077382;28;20205;-71
2024/01/11 01:43:01;;;;;;;19.85;17.98;;;;;;;-4.99;69.41;95790.84;5060287;28;20193;-71
2024/01/11 01:45:28;;;;;;;21.38;19.38;;;;;;;-5.03;69.48;95787.81;5077255;28;20221;-71
2024/01/11 01:47:56;;;;;;;19.25;17.48;;;;;;;-5.09;69.36;95781.50;5060632;28;20602;-71
2024/01/11 01:50:23;;;;;;;20.60;18.70;;;;;;;-5.10;69.31;95776.38;5060070;28;20201;-71
2024/01/11 01:52:51;;;;;;;20.45;18.55;;;;;;;-5.12;70.07;95775.78;5076616;28;20266;-71
2024/01/11 01:55:19;;;;;;;22.42;20.42;;;;;;;-5.16;69.38;95772.75;5059952;28;20205;-71
2024/01/11 01:57:48;;;;;;;25.15;22.75;;;;;;;-5.23;69.68;95768.56;5059728;28;20582;-71
2024/01/11 02:00:19;;;;;;;25.35;22.95;;;;;;;-5.30;69.47;95774.09;5059822;28;20262;-71
2024/01/11 02:02:47;;;;;;;24.83;22.35;;;;;;;-5.33;69.95;95763.78;5077069;28;20201;-71
2024/01/11 02:05:14;;;;;;;23.60;21.40;;;;;;;-5.30;70.37;95766.03;5059775;28;20258;-71
2024/01/11 02:07:41;;;;;;;23.75;21.48;;;;;;;-5.27;70.06;95762.03;5076458;28;20512;-71
2024/01/11 02:10:09;;;;;;;23.45;21.20;;;;;;;-5.27;70.15;95762.03;5059959;28;20209;-71
2024/01/11 02:12:37;;;;;;;24.10;21.70;;;;;;;-5.27;70.18;95764.72;5058161;28;20375;-71
2024/01/11 02:15:06;;;;;;;22.50;20.25;;;;;;;-5.30;70.16;95760.63;5059353;28;20201;-71
2024/01/11 02:17:34;;;;;;;22.05;19.88;;;;;;;-5.26;69.45;95764.50;5076548;28;20624;-71
2024/01/11 02:20:03;;;;;;;20.05;18.05;;;;;;;-5.25;69.40;95762.63;5059340;28;20271;-71
2024/01/11 02:22:33;;;;;;;20.38;18.38;;;;;;;-5.23;69.68;95763.19;5059590;28;20236;-71
2024/01/11 02:25:02;;;;;;;23.30;21.00;;;;;;;-5.28;69.39;95760.38;5058865;28;20208;-71
2024/01/11 02:27:29;;;;;;;22.50;20.30;;;;;;;-5.33;69.86;95759.22;5075620;28;20225;-71
2024/01/11 02:29:56;;;;;;;22.45;20.30;;;;;;;-5.36;69.90;95757.00;5059230;28;20201;-71
2024/01/11 02:32:23;;;;;;;22.35;20.33;;;;;;;-5.40;70.10;95761.22;5039593;28;20206;-71
2024/01/11 02:34:50;;;;;;;21.95;19.85;;;;;;;-5.42;69.77;95757.94;5038626;28;20243;-71
2024/01/11 02:37:17;;;;;;;22.75;20.48;;;;;;;-5.43;69.91;95760.88;5055846;28;20205;-71
2024/01/11 02:39:45;;;;;;;22.02;19.92;;;;;;;-5.50;69.51;95757.50;5055744;28;20260;-71
2024/01/11 02:42:13;;;;;;;21.80;19.80;;;;;;;-5.55;70.18;95757.41;5055779;28;20231;-71
2024/01/11 02:44:41;;;;;;;22.83;20.55;;;;;;;-5.57;70.32;95763.00;5039340;28;20202;-71
2024/01/11 02:47:08;;;;;;;21.38;19.38;;;;;;;-5.57;70.12;95755.75;5055041;28;20241;-71
2024/01/11 02:49:34;;;;;;;21.98;19.98;;;;;;;-5.59;69.91;95747.09;5038946;28;20259;-71
2024/01/11 02:52:01;;;;;;;20.70;18.73;;;;;;;-5.57;70.00;95750.38;5055688;28;20210;-71
2024/01/11 02:54:28;;;;;;;20.95;18.85;;;;;;;-5.51;70.35;95745.94;5039171;28;20194;-71
2024/01/11 02:56:57;;;;;;;21.25;19.35;;;;;;;-5.53;70.00;95755.28;5038916;28;20577;-71
2024/01/11 02:59:25;;;;;;;20.92;19.02;;;;;;;-5.54;69.76;95750.97;5038413;28;20209;-72
2024/01/11 03:01:52;;;;;;;20.90;18.90;;;;;;;-5.51;70.30;95743.25;5054780;28;20194;-72
2024/01/11 03:04:19;;;;;;;21.45;19.48;;;;;;;-5.47;70.57;95744.41;5055209;28;20206;-72
2024/01/11 03:06:46;;;;;;;21.15;19.15;;;;;;;-5.43;70.03;95745.56;5055297;28;20267;-72
2024/01/11 03:09:14;;;;;;;22.17;20.17;;;;;;;-5.43;69.89;95740.19;5038863;28;20263;-72
2024/01/11 03:11:41;;;;;;;22.00;19.90;;;;;;;-5.43;69.49;95742.06;5055379;28;20198;-72
2024/01/11 03:14:09;;;;;;;23.55;21.27;;;;;;;-5.40;69.63;95747.78;5054824;28;20285;-72
2024/01/11 03:16:39;;;;;;;23.88;21.73;;;;;;;-5.40;69.89;95745.09;5038535;28;20225;-72
2024/01/11 03:19:06;;;;;;;23.20;21.15;;;;;;;-5.36;70.00;95745.44;5038320;28;20235;-72
2024/01/11 03:21:33;;;;;;;25.20;22.77;;;;;;;-5.36;70.06;95743.56;5055491;28;20256;-72
2024/01/11 03:24:00;;;;;;;22.08;20.08;;;;;;;-5.32;69.86;95749.28;5054153;28;20653;-72
2024/01/11 03:26:27;;;;;;;21.98;19.98;;;;;;;-5.37;69.25;95738.44;5037658;28;20225;-72
2024/01/11 03:28:54;;;;;;;21.25;19.05;;;;;;;-5.41;69.35;95745.31;5038190;28;20214;-71
2024/01/11 03:31:21;;;;;;;20.45;18.45;;;;;;;-5.41;69.29;95743.47;5050185;28;20282;-71
2024/01/11 03:33:49;;;;;;;21.23;19.42;;;;;;;-5.40;69.46;95742.41;5058072;28;20208;-71
2024/01/11 03:36:16;;;;;;;23.30;21.25;;;;;;;-5.43;68.77;95740.19;5074245;28;20605;-71
2024/01/11 03:38:43;;;;;;;18.13;16.42;;;;;;;-5.45;68.52;95738.78;5075084;28;20198;-71
2024/01/11 03:41:11;;;;;;;17.48;15.82;;;;;;;-5.46;67.81;95732.59;5058346;28;20201;-71
2024/01/11 03:43:38;;;;;;;17.08;15.48;;;;;;;-5.41;69.04;95742.63;5058468;28;20189;-71
2024/01/11 03:46:05;;;;;;;19.17;17.38;;;;;;;-5.43;69.02;95732.13;5057284;28;20243;-71
2024/01/11 03:48:32;;;;;;;20.10;18.35;;;;;;;-5.47;68.65;95738.22;5074359;28;20201;-71
2024/01/11 03:51:00;;;;;;;18.75;16.95;;;;;;;-5.50;69.02;95734.13;5057274;28;20200;-71
2024/01/11 03:53:26;;;;;;;17.20;15.68;;;;;;;-5.48;69.12;95729.34;5058186;28;20213;-71
2024/01/11 03:55:53;;;;;;;17.67;15.95;;;;;;;-5.51;68.24;95723.63;5058153;28;20205;-71
2024/01/11 03:58:20;;;;;;;16.42;14.98;;;;;;;-5.50;68.13;95728.75;5058023;28;20682;-71
2024/01/11 04:00:47;;;;;;;16.98;15.57;;;;;;;-5.49;68.46;95726.88;5057515;28;20219;-71
2024/01/11 04:03:14;;;;;;;23.10;20.80;;;;;;;-5.54;68.76;95724.09;5057561;28;20200;-71
2024/01/11 04:05:41;;;;;;;25.30;22.60;;;;;;;-5.59;69.04;95732.84;5057983;28;20291;-71
2024/01/11 04:08:11;;;;;;;26.67;23.98;;;;;;;-5.78;68.51;95723.28;5073873;28;20521;-71
2024/01/11 04:10:38;;;;;;;23.00;20.77;;;;;;;-5.93;69.07;95723.78;5057429;28;20288;-71
2024/01/11 04:13:05;;;;;;;20.75;18.85;;;;;;;-5.93;69.31;95721.09;5058249;28;20205;-71
2024/01/11 04:15:32;;;;;;;20.98;18.98;;;;;;;-5.89;69.87;95717.66;5058156;28;20197;-71
2024/01/11 04:17:59;;;;;;;19.30;17.52;;;;;;;-5.87;69.87;95710.19;5057627;28;20583;-71
2024/01/11 04:20:26;;;;;;;20.00;18.13;;;;;;;-5.82;69.13;95712.19;5057585;28;20563;-71
2024/01/11 04:22:53;;;;;;;19.25;17.55;;;;;;;-5.79;69.02;95705.53;5058210;28;20223;-71
2024/01/11 04:25:22;;;;;;;18.70;17.08;;;;;;;-5.86;69.34;95706.44;5057540;28;20197;-71
2024/01/11 04:27:49;;;;;;;19.95;18.25;;;;;;;-5.85;69.82;95704.56;5057486;28;20587;-71
2024/01/11 04:30:16;;;;;;;20.15;18.35;;;;;;;-5.85;69.90;95713.44;5057227;28;20197;-71
2024/01/11 04:32:43;;;;;;;19.42;17.67;;;;;;;-5.86;69.85;95706.44;5058183;28;20267;-71
2024/01/11 04:35:10;;;;;;;20.05;18.40;;;;;;;-5.86;69.57;95714.50;5074975;28;20209;-71
2024/01/11 04:37:37;;;;;;;20.38;18.42;;;;;;;-5.84;69.48;95707.03;5061140;28;20234;-71
2024/01/11 04:40:05;;;;;;;20.35;18.50;;;;;;;-5.85;70.10;95716.13;5061030;28;20247;-71
2024/01/11 04:42:33;;;;;;;21.38;19.48;;;;;;;-5.89;69.56;95719.53;5061616;28;20197;-71
2024/01/11 04:45:00;;;;;;;20.30;18.50;;;;;;;-5.98;69.62;95721.78;5077966;28;20266;-71
2024/01/11 04:47:27;;;;;;;18.80;17.10;;;;;;;-6.08;68.82;95722.38;5078106;28;20209;-71
2024/01/11 04:49:54;;;;;;;19.85;18.15;;;;;;;-6.12;69.29;95723.88;5060775;28;20201;-71
2024/01/11 04:52:21;;;;;;;19.77;18.00;;;;;;;-6.11;69.43;95732.75;5061332;28;20258;-71
2024/01/11 04:54:48;;;;;;;19.65;17.85;;;;;;;-6.06;69.48;95722.16;5060674;28;20645;-72
2024/01/11 04:57:15;;;;;;;19.30;17.60;;;;;;;-6.01;69.42;95716.06;5060706;28;20236;-71
2024/01/11 04:59:45;;;;;;;20.02;18.05;;;;;;;-5.98;69.55;95726.34;5061261;28;20213;-71
2024/01/11 05:02:11;;;;;;;20.90;19.10;;;;;;;-5.96;69.37;95726.91;5061147;28;20197;-72
2024/01/11 05:04:38;;;;;;;21.13;19.30;;;;;;;-5.96;69.90;95725.06;5060780;28;20189;-73
2024/01/11 05:07:05;;;;;;;21.58;19.67;;;;;;;-5.90;70.10;95728.66;5060243;28;20597;-73
2024/01/11 05:09:32;;;;;;;22.80;20.67;;;;;;;-5.89;70.25;95720.34;5060726;28;20194;-73
2024/01/11 05:11:59;;;;;;;22.63;20.52;;;;;;;-5.83;69.92;95718.59;5060733;28;20496;-73
2024/01/11 05:14:26;;;;;;;23.67;21.65;;;;;;;-5.84;70.34;95719.66;5060870;28;20263;-73
2024/01/11 05:16:55;;;;;;;23.83;21.80;;;;;;;-5.85;70.33;95709.94;5060819;28;20258;-73
2024/01/11 05:19:22;;;;;;;23.00;20.90;;;;;;;-5.83;69.98;95711.38;5061671;28;20209;-77
2024/01/11 05:21:49;;;;;;;22.08;20.02;;;;;;;-5.80;70.04;95696.66;5078779;28;20193;-77
2024/01/11 05:24:16;;;;;;;22.30;20.40;;;;;;;-5.79;69.89;95698.28;5061279;28;20694;-76
2024/01/11 05:26:43;;;;;;;48.83;45.08;;;;;;;-5.86;70.01;95701.06;5061664;28;20217;-76
2024/01/11 05:29:10;;;;;;;25.30;23.20;;;;;;;-5.96;69.68;95700.88;5060469;28;20261;-76
2024/01/11 05:31:38;;;;;;;22.13;20.13;;;;;;;-6.03;69.74;95699.34;5059064;28;20477;-74
2024/01/11 05:34:06;;;;;;;22.60;20.47;;;;;;;-6.07;69.94;95691.75;5058915;28;20431;-72
2024/01/11 05:36:33;;;;;;;20.80;18.88;;;;;;;-6.02;70.49;95701.00;5060624;28;20279;-73
2024/01/11 05:39:00;;;;;;;25.23;23.13;;;;;;;-5.96;70.72;95694.69;5059873;28;20196;-72
2024/01/11 05:41:27;;;;;;;23.83;21.75;;;;;;;-5.97;70.33;95688.50;5060538;28;20205;-72
2024/01/11 05:43:54;;;;;;;23.23;21.17;;;;;;;-6.05;69.72;95686.19;5060176;28;20201;-72
2024/01/11 05:46:21;;;;;;;24.00;21.98;;;;;;;-6.13;70.12;95687.34;5059949;28;20198;-72
2024/01/11 05:48:48;;;;;;;25.58;23.42;;;;;;;-6.16;70.58;95689.69;5060060;28;20223;-72
2024/01/11 05:51:17;;;;;;;25.70;23.35;;;;;;;-6.18;70.21;95692.56;5059811;28;20201;-76
2024/01/11 05:53:44;;;;;;;28.25;25.55;;;;;;;-6.20;70.51;95689.31;5060035;28;20553;-76
2024/01/11 05:56:11;;;;;;;31.45;28.45;;;;;;;-6.16;70.41;95676.25;5059983;28;20580;-76
2024/01/11 05:58:38;;;;;;;29.80;27.20;;;;;;;-6.18;70.41;95671.09;5059769;28;20202;-76
2024/01/11 06:01:05;;;;;;;29.15;26.45;;;;;;;-6.21;70.50;95670.75;5059354;28;20513;-76
2024/01/11 06:03:34;;;;;;;29.33;26.60;;;;;;;-6.18;70.60;95671.09;5076660;28;20492;-76
2024/01/11 06:06:01;;;;;;;28.60;26.00;;;;;;;-6.13;70.39;95681.16;5060006;28;20204;-76
2024/01/11 06:08:43;;;;;;;27.52;25.02;;;;;;;-6.09;71.12;95668.91;5059964;28;20641;-76
2024/01/11 06:11:10;;;;;;;26.60;24.23;;;;;;;-6.11;70.67;95671.00;5059641;28;20266;-76
2024/01/11 06:13:37;;;;;;;28.45;25.85;;;;;;;-6.08;70.62;95673.22;5059474;28;20204;-69
2024/01/11 06:16:04;;;;;;;32.13;29.33;;;;;;;-6.12;70.46;95670.19;5076256;28;20205;-72
2024/01/11 06:18:32;;;;;;;30.85;28.15;;;;;;;-6.14;70.38;95672.25;5075697;28;20196;-71
2024/01/11 06:20:59;;;;;;;37.65;34.40;;;;;;;-6.14;70.16;95669.56;5059774;28;20201;-72
2024/01/11 06:23:26;;;;;;;34.70;31.65;;;;;;;-6.12;70.37;95672.03;5059783;28;20189;-72
2024/01/11 06:25:55;;;;;;;30.45;27.85;;;;;;;-6.08;70.58;95670.53;5059735;28;20262;-71
2024/01/11 06:28:22;;;;;;;30.75;27.98;;;;;;;-6.03;70.55;95661.75;5058928;28;20229;-72
2024/01/11 06:30:49;;;;;;;29.95;27.35;;;;;;;-5.96;70.48;95663.28;5076704;28;20741;-70
2024/01/11 06:33:16;;;;;;;30.77;27.98;;;;;;;-5.90;70.50;95665.00;5076404;28;20201;-72
2024/01/11 06:35:43;;;;;;;32.72;29.67;;;;;;;-5.89;69.67;95660.44;5059878;28;20296;-71
2024/01/11 06:38:10;;;;;;;32.17;29.38;;;;;;;-5.82;70.71;95663.81;5059380;28;20211;-72
2024/01/11 06:40:37;;;;;;;34.33;31.42;;;;;;;-5.76;70.85;95654.81;5059865;28;20204;-72
2024/01/11 06:43:05;;;;;;;34.75;31.65;;;;;;;-5.71;70.47;95654.09;5059426;28;20246;-72
2024/01/11 06:45:32;;;;;;;38.70;35.30;;;;;;;-5.71;70.35;95652.22;5058570;28;20743;-70
2024/01/11 06:47:59;;;;;;;48.92;44.33;;;;;;;-5.67;69.70;95636.44;5058480;28;20221;-71
2024/01/11 06:50:26;;;;;;;57.72;52.13;;;;;;;-5.61;70.47;95641.69;5059322;28;20274;-71
2024/01/11 06:52:53;;;;;;;50.95;46.25;;;;;;;-5.58;69.64;95651.16;5059243;28;20254;-70
2024/01/11 06:55:20;;;;;;;37.08;33.75;;;;;;;-5.59;69.75;95660.28;5075954;28;20189;-70
2024/01/11 06:57:48;;;;;;;30.67;28.08;;;;;;;-5.51;69.84;95656.41;5075057;28;20579;-71
2024/01/11 07:00:17;;;;;;;31.67;28.67;;;;;;;-5.51;69.38;95651.84;5058646;28;20203;-71
2024/01/11 07:02:44;;;;;;;33.58;30.50;;;;;;;-5.49;69.43;95648.91;5058900;28;20201;-71
2024/01/11 07:05:13;;;;;;;33.50;30.63;;;;;;;-5.49;69.31;95655.09;5059398;28;20593;-71
2024/01/11 07:07:39;;;;;;;29.35;26.85;;;;;;;-5.46;69.67;95651.13;5059374;28;20227;-72
2024/01/11 07:10:08;;;;;;;27.38;24.98;;;;;;;-5.45;69.66;95645.50;5058561;28;20196;-71
2024/01/11 07:12:37;;;;;;;27.88;25.45;;;;;;;-5.34;69.33;95646.53;5058749;28;20201;-72
2024/01/11 07:15:06;;;;;;;24.77;22.63;;;;;;;-5.25;69.45;95646.97;5075440;28;20228;-71
2024/01/11 07:17:35;;;;;;;24.02;21.95;;;;;;;-5.21;68.63;95645.44;5058132;28;20643;-71
2024/01/11 07:20:04;;;;;;;20.92;19.15;;;;;;;-5.17;68.37;95649.28;5058174;28;20259;-71
2024/01/11 07:22:31;;;;;;;22.20;20.23;;;;;;;-5.03;68.27;95647.94;5058322;28;20629;-71
2024/01/11 07:24:57;;;;;;;21.85;19.95;;;;;;;-4.96;68.09;95643.22;5058151;28;20205;-71
2024/01/11 07:27:25;;;;;;;23.00;20.90;;;;;;;-4.88;68.47;95645.50;5058235;28;20244;-71
2024/01/11 07:29:52;;;;;;;25.35;23.15;;;;;;;-4.74;67.49;95637.16;5075244;28;20205;-71
2024/01/11 07:32:19;;;;;;;24.77;22.52;;;;;;;-4.64;67.56;95645.41;5057923;28;20295;-72
2024/01/11 07:34:47;;;;;;;24.98;22.63;;;;;;;-4.50;67.76;95641.34;5058353;28;20201;-71
2024/01/11 07:37:14;;;;;;;26.48;24.08;;;;;;;-4.38;66.93;95642.06;5058043;28;20263;-71
2024/01/11 07:39:41;;;;;;;26.38;23.98;;;;;;;-4.25;66.89;95637.38;5075312;28;20205;-72
2024/01/11 07:42:08;;;;;;;28.33;25.63;;;;;;;-4.26;66.22;95641.97;5057903;28;20186;-71
2024/01/11 07:44:35;;;;;;;34.17;31.05;;;;;;;-4.26;66.20;95643.84;5057812;28;20617;-72
2024/01/11 07:47:02;;;;;;;36.25;32.85;;;;;;;-4.25;66.47;95635.53;5057672;28;20242;-71
2024/01/11 07:49:29;;;;;;;39.40;36.00;;;;;;;-4.13;67.19;95635.44;5057492;28;20640;-69
2024/01/11 07:52:16;;;;;;;46.35;42.08;;;;;;;-3.95;66.36;95632.47;5075361;28;20192;-72
2024/01/11 07:55:07;;;;;;;49.15;44.85;;;;;;;-3.77;65.90;95625.97;5075672;28;20258;-72
2024/01/11 07:57:35;;;;;;;52.58;47.88;;;;;;;-3.64;65.83;95630.19;5058632;28;20624;-72
2024/01/11 08:00:03;;;;;;;51.60;46.80;;;;;;;-3.54;65.36;95629.50;5058177;28;20227;-71
2024/01/11 08:02:30;;;;;;;44.05;39.95;;;;;;;-3.45;65.45;95618.03;5074985;28;20209;-71
2024/01/11 08:04:58;;;;;;;37.03;33.75;;;;;;;-3.30;65.08;95630.06;5058055;28;20193;-71
2024/01/11 08:07:26;;;;;;;34.17;31.27;;;;;;;-3.24;64.72;95620.97;5057486;28;20259;-71
2024/01/11 08:09:53;;;;;;;32.47;29.55;;;;;;;-3.17;64.45;95625.09;5058885;28;20209;-72
2024/01/11 08:12:22;;;;;;;31.92;29.00;;;;;;;-3.05;63.84;95616.88;5078525;28;20211;-72
2024/01/11 08:14:48;;;;;;;30.73;27.92;;;;;;;-2.93;64.11;95614.00;5061679;28;20608;-72
2024/01/11 08:17:15;;;;;;;29.17;26.58;;;;;;;-2.82;63.88;95623.84;5062522;28;20197;-72
2024/01/11 08:19:43;;;;;;;31.63;28.77;;;;;;;-2.70;63.71;95610.97;5061760;28;20212;-70
2024/01/11 08:22:11;;;;;;;31.55;28.65;;;;;;;-2.69;63.16;95611.78;5061597;28;20201;-70
2024/01/11 08:24:39;;;;;;;32.70;29.77;;;;;;;-2.51;63.80;95605.19;5061375;28;20193;-70
2024/01/11 08:27:06;;;;;;;32.67;29.80;;;;;;;-2.37;63.13;95603.69;5077993;28;20204;-70
2024/01/11 08:29:33;;;;;;;32.70;29.60;;;;;;;-2.20;63.18;95606.28;5077929;28;20224;-70
2024/01/11 08:32:01;;;;;;;32.10;29.20;;;;;;;-2.00;62.96;95603.72;5077899;28;20234;-70
2024/01/11 08:34:28;;;;;;;33.90;30.77;;;;;;;-1.82;62.01;95610.56;5077907;28;20216;-71
2024/01/11 08:36:55;;;;;;;35.88;32.45;;;;;;;-1.65;61.36;95612.28;5053297;28;20224;-70
2024/01/11 08:39:22;;;;;;;34.88;31.65;;;;;;;-1.58;60.81;95607.47;5061091;28;20213;-70
2024/01/11 08:41:52;;;;;;;33.17;30.17;;;;;;;-1.43;60.45;95614.81;5061397;28;20563;-71
2024/01/11 08:44:19;;;;;;;31.02;28.13;;;;;;;-1.42;60.02;95614.56;5062112;28;20199;-71
2024/01/11 08:46:45;;;;;;;30.35;27.45;;;;;;;-1.38;59.55;95612.13;5061538;28;20201;-71
2024/01/11 08:49:13;;;;;;;31.20;28.23;;;;;;;-1.28;59.57;95599.47;5061919;28;20217;-71
2024/01/11 08:51:40;;;;;;;36.78;33.10;;;;;;;-1.12;59.47;95602.25;5061642;28;20193;-70
2024/01/11 08:54:09;;;;;;;45.30;41.08;;;;;;;-0.99;59.07;95599.81;5060830;28;20208;-71
2024/01/11 08:56:39;;;;;;;40.90;37.13;;;;;;;-0.92;59.45;95587.94;5061804;28;20201;-72
2024/01/11 08:59:08;;;;;;;37.70;34.22;;;;;;;-0.81;58.96;95593.09;5078245;28;20282;-71
2024/01/11 09:01:35;;;;;;;36.53;33.22;;;;;;;-0.76;58.37;95586.88;5061840;28;20188;-70
2024/01/11 09:04:02;;;;;;;32.45;29.45;;;;;;;-0.52;58.07;95574.44;5060547;28;20609;-71
2024/01/11 09:06:30;;;;;;;37.70;34.30;;;;;;;-0.34;57.25;95578.50;5061347;28;20197;-71
2024/01/11 09:08:57;;;;;;;37.55;34.15;;;;;;;-0.27;56.79;95570.91;5060448;28;20263;-71
2024/01/11 09:11:24;;;;;;;38.40;34.90;;;;;;;-0.22;56.92;95572.78;5061225;28;20204;-70
2024/01/11 09:13:51;;;;;;;34.78;31.65;;;;;;;-0.19;56.82;95568.72;5061070;28;20197;-70
2024/01/11 09:16:20;;;;;;;35.72;32.53;;;;;;;-0.20;56.57;95558.97;5060686;28;20289;-70
2024/01/11 09:18:48;;;;;;;36.88;33.67;;;;;;;-0.08;56.44;95559.50;5060749;28;20251;-70
2024/01/11 09:21:14;;;;;;;37.00;33.72;;;;;;;0.01;55.47;95551.63;5061052;28;20498;-70
2024/01/11 09:23:41;;;;;;;34.97;31.77;;;;;;;0.09;55.60;95551.88;5060378;28;20678;-71
2024/01/11 09:26:08;;;;;;;35.00;31.80;;;;;;;0.25;55.98;95547.22;5076975;28;20251;-71
2024/01/11 09:28:35;;;;;;;34.53;31.42;;;;;;;0.27;54.99;95552.38;5060754;28;20262;-70
2024/01/11 09:31:02;;;;;;;34.75;31.65;;;;;;;0.42;54.69;95541.47;5077164;28;20229;-70
2024/01/11 09:33:31;;;;;;;32.25;29.45;;;;;;;0.54;54.30;95535.72;5060357;28;20197;-70
2024/01/11 09:35:57;;;;;;;31.35;28.65;;;;;;;0.87;54.64;95531.47;5069427;28;20217;-70
2024/01/11 09:38:24;;;;;;;28.52;25.83;;;;;;;1.04;53.93;95526.50;5060606;28;20214;-71
2024/01/11 09:41:01;;;;;;;30.77;28.02;;;;;;;1.10;52.69;95525.38;5061293;28;20201;-71
2024/01/11 09:43:28;;;;;;;26.67;24.30;;;;;;;1.49;52.41;95519.13;5060653;28;20262;-69
2024/01/11 09:45:56;;;;;;;26.02;23.63;;;;;;;1.62;51.41;95515.72;5059826;28;20209;-72
2024/01/11 09:48:24;;;;;;;27.33;25.08;;;;;;;1.62;51.33;95499.41;5076567;28;20577;-72
2024/01/11 09:50:53;;;;;;;30.15;27.45;;;;;;;1.74;50.52;95493.59;5059793;28;20557;-72
2024/01/11 09:53:23;;;;;;;28.38;25.88;;;;;;;2.07;50.04;95493.81;5061089;28;20243;-71
2024/01/11 09:55:50;;;;;;;28.83;26.23;;;;;;;2.44;49.46;95482.22;5060677;28;20244;-68
2024/01/11 09:58:18;;;;;;;27.88;25.48;;;;;;;2.64;48.79;95475.69;5059405;28;20209;-68
2024/01/11 10:00:46;;;;;;;29.02;26.33;;;;;;;2.94;47.58;95479.94;5060484;28;20212;-68
2024/01/11 10:03:13;;;;;;;28.10;25.67;;;;;;;3.15;48.58;95483.16;5060049;28;20233;-69
2024/01/11 10:05:40;;;;;;;26.75;24.35;;;;;;;3.54;47.79;95471.91;5060489;28;20447;-70
2024/01/11 10:08:09;;;;;;;27.50;25.00;;;;;;;3.79;46.42;95465.19;5076454;28;20224;-69
2024/01/11 10:10:37;;;;;;;26.35;24.05;;;;;;;4.00;46.04;95462.91;5058756;28;20482;-67
2024/01/11 10:13:04;;;;;;;22.13;20.20;;;;;;;4.22;45.53;95447.78;5059179;28;20674;-67
2024/01/11 10:15:31;;;;;;;23.52;21.20;;;;;;;4.39;45.10;95455.34;5059352;28;20291;-67
2024/01/11 10:17:59;;;;;;;21.70;19.75;;;;;;;4.35;43.72;95445.00;5059382;28;20215;-67
2024/01/11 10:20:27;;;;;;;19.92;17.98;;;;;;;4.40;44.76;95437.84;5059382;28;20233;-67
2024/01/11 10:22:55;;;;;;;19.20;17.42;;;;;;;4.63;43.16;95433.28;5076160;28;20197;-67
2024/01/11 10:25:24;;;;;;;19.83;18.02;;;;;;;4.65;42.60;95425.56;5059480;28;20205;-67
2024/01/11 10:27:51;;;;;;;20.48;18.58;;;;;;;4.57;43.29;95425.19;5059091;28;20239;-67
2024/01/11 10:30:19;;;;;;;20.17;18.23;;;;;;;4.56;43.64;95417.28;5075572;28;20200;-67
2024/01/11 10:32:47;;;;;;;21.80;19.83;;;;;;;4.65;43.87;95414.63;5058293;28;20300;-67
2024/01/11 10:35:16;;;;;;;19.88;17.98;;;;;;;4.56;43.32;95412.63;5059010;28;20577;-66
2024/01/11 10:37:44;;;;;;;23.65;21.35;;;;;;;4.54;43.78;95400.41;5075566;28;20247;-67
2024/01/11 10:40:12;;;;;;;22.52;20.52;;;;;;;4.28;44.10;95392.72;5059530;28;20205;-66
2024/01/11 10:42:43;;;;;;;22.50;20.48;;;;;;;4.17;44.14;95399.50;5058976;28;20201;-66
2024/01/11 10:45:16;;;;;;;20.92;18.83;;;;;;;4.03;44.83;95387.78;5076301;28;20212;-67
2024/01/11 10:47:51;;;;;;;21.17;19.08;;;;;;;3.61;44.75;95387.78;5058787;28;20211;-67
2024/01/11 10:50:19;;;;;;;21.65;19.63;;;;;;;3.31;46.08;95380.94;5059332;28;20303;-67
2024/01/11 10:52:57;;;;;;;22.08;19.88;;;;;;;3.18;47.26;95379.00;5075576;28;20262;-67
2024/01/11 10:55:25;;;;;;;21.27;19.33;;;;;;;3.02;47.43;95385.81;5058660;28;20681;-67
2024/01/11 10:57:54;;;;;;;21.45;19.35;;;;;;;2.91;47.07;95377.00;5058909;28;20255;-66
2024/01/11 11:00:22;;;;;;;21.88;19.58;;;;;;;2.76;47.10;95369.03;5058318;28;20235;-66
2024/01/11 11:02:50;;;;;;;22.98;20.58;;;;;;;2.65;47.86;95365.66;5075488;28;20219;-67
2024/01/11 11:05:18;;;;;;;22.17;20.08;;;;;;;2.57;48.40;95355.44;5075121;28;20289;-67
2024/01/11 11:07:45;;;;;;;21.98;19.70;;;;;;;2.54;48.24;95358.75;5058417;28;20205;-66
2024/01/11 11:10:13;;;;;;;18.70;16.27;;;;;;;2.27;47.98;95346.59;5058098;28;20229;-66
2024/01/11 11:12:41;;;;;;;17.63;15.93;;;;;;;2.15;49.08;95338.06;5058265;28;20231;-66
2024/01/11 11:15:12;;;;;;;17.60;15.90;;;;;;;2.57;49.54;95333.66;5058622;28;20200;-67
2024/01/11 11:17:39;;;;;;;16.38;14.68;;;;;;;2.95;47.84;95331.69;5058793;28;20262;-68
2024/01/11 11:20:08;;;;;;;16.20;14.50;;;;;;;3.32;48.33;95325.31;5058937;28;20205;-67
2024/01/11 11:22:35;;;;;;;17.80;15.98;;;;;;;4.19;46.54;95317.31;5057803;28;20270;-69